Time;durP1;ratioP1;P1;durP2;ratioP2;P2;SDS_P1;SDS_P2;PMS_P1;PMS_P2;Temp;Humidity;BMP_temperature;BMP_pressure;BME280_temperature;BME280_humidity;BME280_pressure;Samples;Min_cycle;Max_cycle;Signal;HPM_P1;HPM_P2
2023/03/20 00:01:52;;;;;;;;;;;8.90;99.90;;;;;;5015510;28;20057;-50
2023/03/20 00:04:17;;;;;;;14.85;11.73;;;8.90;99.90;;;;;;4996662;28;20292;-49
2023/03/20 00:06:43;;;;;;;13.85;11.52;;;8.90;99.90;;;;;;5345150;23;22030;-78
2023/03/20 00:09:10;;;;;;;16.35;12.45;;;8.90;99.90;;;;;;5014538;28;20559;-78
2023/03/20 00:11:47;;;;;;;16.13;11.93;;;8.90;99.90;;;;;;5023280;23;20058;-50
2023/03/20 00:14:15;;;;;;;17.15;12.57;;;8.90;99.90;;;;;;4992305;28;20121;-54
2023/03/20 00:16:41;;;;;;;;;;;8.90;99.90;;;;;;4974198;28;20042;-53
2023/03/20 00:19:13;;;;;;;16.52;12.73;;;8.90;99.90;;;;;;4993888;28;19922;-51
2023/03/20 00:21:39;;;;;;;17.88;13.82;;;8.90;99.90;;;;;;4982628;28;20423;-52
2023/03/20 00:24:06;;;;;;;16.25;13.30;;;8.80;99.90;;;;;;4994047;28;20054;-53
2023/03/20 00:26:34;;;;;;;19.45;14.30;;;8.90;99.90;;;;;;4986642;28;20070;-53
2023/03/20 00:29:01;;;;;;;21.08;15.95;;;8.80;99.90;;;;;;4991290;28;20039;-52
2023/03/20 00:31:34;;;;;;;18.80;14.93;;;8.80;99.90;;;;;;4992977;28;20050;-50
2023/03/20 00:34:02;;;;;;;23.73;15.45;;;8.80;99.90;;;;;;4995217;28;20092;-55
2023/03/20 00:36:28;;;;;;;21.58;15.32;;;8.70;99.90;;;;;;4988169;28;20049;-51
2023/03/20 00:38:57;;;;;;;20.13;15.48;;;8.70;99.90;;;;;;4993945;28;20042;-50
2023/03/20 00:41:56;;;;;;;21.77;15.90;;;8.70;99.90;;;;;;4990045;28;20394;-51
2023/03/20 00:44:28;;;;;;;24.45;15.00;;;8.70;99.90;;;;;;4993073;28;20050;-52
2023/03/20 00:46:58;;;;;;;19.02;14.05;;;8.70;99.90;;;;;;4993332;28;20042;-51
2023/03/20 00:49:28;;;;;;;20.45;12.90;;;8.70;99.90;;;;;;4990287;28;20061;-50
2023/03/20 00:51:55;;;;;;;20.20;12.80;;;8.70;99.90;;;;;;4993065;28;20064;-52
2023/03/20 00:54:21;;;;;;;18.83;12.40;;;8.60;99.90;;;;;;4985474;28;20073;-51
2023/03/20 00:57:12;;;;;;;22.33;12.77;;;8.60;99.90;;;;;;4985715;28;20038;-52
2023/03/20 00:59:45;;;;;;;19.20;11.85;;;8.60;99.90;;;;;;4990714;28;20049;-50
2023/03/20 01:02:11;;;;;;;21.10;10.98;;;8.60;99.90;;;;;;4994283;28;20518;-53
2023/03/20 01:04:41;;;;;;;23.45;10.27;;;8.60;99.90;;;;;;4978189;28;20042;-51
2023/03/20 01:07:12;;;;;;;19.17;10.45;;;8.60;99.90;;;;;;4991310;28;20044;-50
2023/03/20 01:09:38;;;;;;;19.67;9.90;;;8.50;99.90;;;;;;5002261;28;20050;-51
2023/03/20 01:12:06;;;;;;;17.42;9.43;;;8.50;99.90;;;;;;4993357;28;20406;-51
2023/03/20 01:14:33;;;;;;;13.68;8.88;;;8.50;99.90;;;;;;4994378;28;20105;-52
2023/03/20 01:16:58;;;;;;;15.82;9.80;;;8.50;99.90;;;;;;4991741;28;20137;-50
2023/03/20 01:19:24;;;;;;;15.30;9.13;;;8.50;99.90;;;;;;4986493;28;20133;-50
2023/03/20 01:21:50;;;;;;;20.52;9.38;;;8.50;99.90;;;;;;4974770;28;20108;-50
2023/03/20 01:24:16;;;;;;;18.30;9.77;;;8.50;99.90;;;;;;4993104;28;20046;-50
2023/03/20 01:26:43;;;;;;;13.82;9.32;;;8.50;99.90;;;;;;4995152;28;20133;-51
2023/03/20 01:29:18;;;;;;;15.25;8.60;;;8.50;99.90;;;;;;4985613;28;20042;-51
2023/03/20 01:31:44;;;;;;;14.45;8.32;;;8.40;99.90;;;;;;4989725;28;20108;-50
2023/03/20 01:34:10;;;;;;;12.93;8.50;;;8.40;99.90;;;;;;4988650;28;20050;-54
2023/03/20 01:36:37;;;;;;;11.23;7.80;;;8.40;99.90;;;;;;4987620;28;20062;-51
2023/03/20 01:39:03;;;;;;;14.50;7.97;;;8.40;99.90;;;;;;4988851;28;20041;-54
2023/03/20 01:41:30;;;;;;;12.93;8.30;;;8.40;99.90;;;;;;4989094;28;20042;-50
2023/03/20 01:43:56;;;;;;;10.90;7.43;;;8.30;99.90;;;;;;4997305;28;20333;-50
2023/03/20 01:46:30;;;;;;;14.60;8.40;;;8.40;99.90;;;;;;4994495;28;20046;-51
2023/03/20 01:49:06;;;;;;;14.15;7.93;;;8.30;99.90;;;;;;5008419;28;20429;-51
2023/03/20 01:51:34;;;;;;;16.30;7.68;;;8.30;99.90;;;;;;4976249;28;20051;-50
2023/03/20 01:54:14;;;;;;;11.43;7.70;;;8.30;99.90;;;;;;4993801;28;20452;-52
2023/03/20 01:56:51;;;;;;;12.65;7.93;;;8.30;99.90;;;;;;4991658;28;20051;-51
2023/03/20 01:59:24;;;;;;;15.60;8.45;;;8.20;99.90;;;;;;4990364;28;20042;-50
2023/03/20 02:01:50;;;;;;;16.42;8.57;;;8.30;99.90;;;;;;4984767;28;20100;-52
2023/03/20 02:04:17;;;;;;;13.50;8.48;;;8.20;99.90;;;;;;4984771;28;20129;-50
2023/03/20 02:06:44;;;;;;;16.00;9.10;;;8.20;99.90;;;;;;5007471;28;20057;-52
2023/03/20 02:09:11;;;;;;;15.65;9.95;;;8.20;99.90;;;;;;5004699;28;20049;-50
2023/03/20 02:11:40;;;;;;;16.00;9.40;;;8.20;99.90;;;;;;4989593;28;20058;-50
2023/03/20 02:14:07;;;;;;;16.55;10.20;;;8.20;99.90;;;;;;4986108;28;20085;-51
2023/03/20 02:16:32;;;;;;;18.02;10.20;;;8.20;99.90;;;;;;4984847;28;20042;-51
2023/03/20 02:18:58;;;;;;;17.15;10.35;;;8.20;99.90;;;;;;4984534;28;20039;-50
2023/03/20 02:21:42;;;;;;;20.08;10.88;;;8.20;99.90;;;;;;4983175;28;20047;-52
2023/03/20 02:24:29;;;;;;;18.85;11.45;;;8.20;99.90;;;;;;4983265;28;20523;-54
2023/03/20 02:26:58;;;;;;;21.80;11.90;;;8.20;99.90;;;;;;4981615;28;20113;-53
2023/03/20 02:29:38;;;;;;;19.98;10.57;;;8.20;99.90;;;;;;4983690;28;20046;-51
2023/03/20 02:32:16;;;;;;;18.75;10.77;;;8.20;99.90;;;;;;4983271;28;20042;-51
2023/03/20 02:35:00;;;;;;;19.90;12.10;;;8.20;99.90;;;;;;4982773;28;20406;-52
2023/03/20 02:37:41;;;;;;;22.45;11.27;;;8.20;99.90;;;;;;4983445;28;20042;-50
2023/03/20 02:40:32;;;;;;;21.05;13.57;;;8.20;99.90;;;;;;4983870;28;20515;-50
2023/03/20 02:43:00;;;;;;;22.30;14.25;;;8.20;99.90;;;;;;4987538;28;20070;-50
2023/03/20 02:45:32;;;;;;;21.83;15.18;;;8.20;99.90;;;;;;4974713;28;20108;-50
2023/03/20 02:48:15;;;;;;;22.90;14.55;;;8.20;99.90;;;;;;4988854;28;20511;-51
2023/03/20 02:50:49;;;;;;;20.25;14.25;;;8.20;99.90;;;;;;4992786;28;20049;-51
2023/03/20 02:53:36;;;;;;;24.15;14.30;;;8.20;99.90;;;;;;4988065;28;20046;-51
2023/03/20 02:56:23;;;;;;;25.65;15.15;;;8.20;99.90;;;;;;4981549;28;20129;-50
2023/03/20 02:58:52;;;;;;;23.63;14.88;;;8.20;99.90;;;;;;4993097;28;20049;-51
2023/03/20 03:01:27;;;;;;;23.75;15.40;;;8.20;99.90;;;;;;5012996;28;20052;-50
2023/03/20 03:04:01;;;;;;;26.55;17.40;;;8.20;99.90;;;;;;4992835;28;20042;-51
2023/03/20 03:06:31;;;;;;;24.25;16.83;;;8.20;99.90;;;;;;4987159;28;20050;-50
2023/03/20 03:09:05;;;;;;;24.98;16.15;;;8.20;99.90;;;;;;4997611;28;20053;-52
2023/03/20 03:11:37;;;;;;;28.42;16.38;;;8.20;99.90;;;;;;4983787;28;20054;-50
2023/03/20 03:14:04;;;;;;;27.50;16.55;;;8.20;99.90;;;;;;5000251;28;20056;-50
2023/03/20 03:16:34;;;;;;;25.95;16.65;;;8.20;99.90;;;;;;4992982;28;20046;-52
2023/03/20 03:19:09;;;;;;;24.30;15.18;;;8.20;99.90;;;;;;4985521;28;20368;-52
2023/03/20 03:21:38;;;;;;;23.95;15.55;;;8.20;99.90;;;;;;4979680;28;20121;-50
2023/03/20 03:24:04;;;;;;;23.02;14.15;;;8.20;99.90;;;;;;4983259;28;20042;-52
2023/03/20 03:26:35;;;;;;;25.13;14.68;;;8.20;99.90;;;;;;4981953;28;20039;-52
2023/03/20 03:29:05;;;;;;;23.55;13.70;;;8.20;99.90;;;;;;4981484;28;20046;-50
2023/03/20 03:31:31;;;;;;;21.17;13.48;;;8.20;99.90;;;;;;4981809;28;20387;-52
2023/03/20 03:34:00;;;;;;;21.42;13.77;;;8.20;99.90;;;;;;4982876;28;20117;-51
2023/03/20 03:36:51;;;;;;;20.73;13.13;;;8.20;99.90;;;;;;4967230;28;20078;-52
2023/03/20 03:39:31;;;;;;;19.17;13.55;;;8.20;99.90;;;;;;4982314;28;20039;-50
2023/03/20 03:42:03;;;;;;;21.25;13.18;;;8.10;99.90;;;;;;4984536;28;20129;-55
2023/03/20 03:44:47;;;;;;;18.48;12.45;;;8.20;99.90;;;;;;4981062;28;20577;-52
2023/03/20 03:47:25;;;;;;;19.83;12.43;;;8.20;99.90;;;;;;4982108;28;20105;-51
2023/03/20 03:49:58;;;;;;;19.92;11.65;;;8.20;99.90;;;;;;4981745;28;20046;-50
2023/03/20 03:52:27;;;;;;;22.40;12.45;;;8.20;99.90;;;;;;4981527;28;20407;-54
2023/03/20 03:55:04;;;;;;;17.33;10.90;;;8.10;99.90;;;;;;4981326;28;20042;-50
2023/03/20 03:57:40;;;;;;;16.73;10.05;;;8.10;99.90;;;;;;4982816;28;20441;-53
2023/03/20 04:00:10;;;;;;;17.88;10.07;;;8.10;99.90;;;;;;4993028;28;20129;-51
2023/03/20 04:02:37;;;;;;;16.35;10.00;;;8.10;99.90;;;;;;4988773;28;20482;-50
2023/03/20 04:05:05;;;;;;;15.48;9.63;;;8.10;99.90;;;;;;4990268;28;20047;-50
2023/03/20 04:07:31;;;;;;;14.35;9.10;;;8.10;99.90;;;;;;4989184;28;20038;-51
2023/03/20 04:09:57;;;;;;;13.80;9.02;;;8.10;99.90;;;;;;4975173;28;20042;-53
2023/03/20 04:12:33;;;;;;;13.57;8.63;;;8.10;99.90;;;;;;4988120;28;20055;-51
2023/03/20 04:14:59;;;;;;;13.38;8.88;;;8.10;99.90;;;;;;4988565;28;20483;-51
2023/03/20 04:17:25;;;;;;;14.25;8.48;;;8.10;99.90;;;;;;4979867;28;20101;-53
2023/03/20 04:19:50;;;;;;;16.17;9.15;;;8.10;99.90;;;;;;4979838;28;20105;-50
2023/03/20 04:22:16;;;;;;;14.23;8.70;;;8.10;99.90;;;;;;4980668;28;20412;-50
2023/03/20 04:24:42;;;;;;;16.42;9.48;;;8.10;99.90;;;;;;4981527;28;20146;-51
2023/03/20 04:27:07;;;;;;;15.48;8.73;;;8.10;99.90;;;;;;4980770;28;20045;-50
2023/03/20 04:29:33;;;;;;;16.70;8.88;;;8.10;99.90;;;;;;4981284;28;20042;-54
2023/03/20 04:31:59;;;;;;;15.32;9.55;;;8.00;99.90;;;;;;4966260;28;20046;-53
2023/03/20 04:34:24;;;;;;;14.18;9.15;;;8.00;99.90;;;;;;4981208;28;20189;-52
2023/03/20 04:36:50;;;;;;;13.55;8.30;;;8.00;99.90;;;;;;4983188;28;20054;-54
2023/03/20 04:39:16;;;;;;;14.75;9.95;;;8.00;99.90;;;;;;4979592;28;20440;-54
2023/03/20 04:41:41;;;;;;;15.10;9.63;;;8.00;99.90;;;;;;4983284;28;20035;-52
2023/03/20 04:44:07;;;;;;;15.50;10.15;;;8.00;99.90;;;;;;4981654;28;20475;-51
2023/03/20 04:46:32;;;;;;;14.80;10.77;;;8.00;99.90;;;;;;4983058;28;20078;-52
2023/03/20 04:48:58;;;;;;;13.85;9.88;;;7.90;99.90;;;;;;4999855;28;20057;-50
2023/03/20 04:51:24;;;;;;;16.95;11.23;;;8.00;99.90;;;;;;5007972;28;20045;-53
2023/03/20 04:53:50;;;;;;;14.43;11.25;;;7.90;99.90;;;;;;4982855;28;20475;-51
2023/03/20 04:56:15;;;;;;;15.65;11.93;;;7.90;99.90;;;;;;5000585;28;20045;-50
2023/03/20 04:58:41;;;;;;;19.45;12.18;;;7.90;99.90;;;;;;4982924;28;20451;-50
2023/03/20 05:01:07;;;;;;;17.85;12.98;;;7.90;99.90;;;;;;4995692;28;20057;-51
2023/03/20 05:03:32;;;;;;;16.52;12.02;;;7.90;99.90;;;;;;4979263;28;20148;-52
2023/03/20 05:05:58;;;;;;;18.25;13.00;;;7.90;99.90;;;;;;4978037;28;20046;-50
2023/03/20 05:08:24;;;;;;;21.95;13.02;;;7.90;99.90;;;;;;4995427;28;20046;-50
2023/03/20 05:10:50;;;;;;;18.23;13.85;;;7.90;99.90;;;;;;4995461;28;20054;-50
2023/03/20 05:13:16;;;;;;;21.08;13.27;;;7.80;99.90;;;;;;4994141;28;20167;-50
2023/03/20 05:15:42;;;;;;;23.17;14.40;;;7.80;99.90;;;;;;4975941;28;20057;-50
2023/03/20 05:18:08;;;;;;;19.48;15.02;;;7.80;99.90;;;;;;4988313;28;20050;-51
2023/03/20 05:20:35;;;;;;;19.08;13.88;;;7.80;99.90;;;;;;4983845;28;20057;-50
2023/03/20 05:23:01;;;;;;;18.60;14.50;;;7.80;99.90;;;;;;4978189;28;20491;-50
2023/03/20 05:25:27;;;;;;;18.67;14.75;;;7.80;99.90;;;;;;4987741;28;20101;-50
2023/03/20 05:27:53;;;;;;;19.42;14.60;;;7.70;99.90;;;;;;4991835;28;20057;-50
2023/03/20 05:30:18;;;;;;;19.95;15.43;;;7.80;99.90;;;;;;4984467;28;20034;-51
2023/03/20 05:32:44;;;;;;;16.85;14.98;;;7.70;99.90;;;;;;4983987;28;20038;-53
2023/03/20 05:35:11;;;;;;;18.30;14.32;;;7.70;99.90;;;;;;4985358;28;20144;-51
2023/03/20 05:37:37;;;;;;;22.20;14.88;;;7.70;99.90;;;;;;4983559;28;20061;-53
2023/03/20 05:40:04;;;;;;;20.02;15.93;;;7.70;99.90;;;;;;4986261;28;20105;-52
2023/03/20 05:42:30;;;;;;;20.95;14.85;;;7.70;99.90;;;;;;4983408;28;20471;-50
2023/03/20 05:44:55;;;;;;;18.77;14.70;;;7.70;99.90;;;;;;4983058;28;20038;-51
2023/03/20 05:47:21;;;;;;;17.05;14.45;;;7.70;99.90;;;;;;4985361;28;20046;-51
2023/03/20 05:49:47;;;;;;;16.10;13.88;;;7.70;99.90;;;;;;4982761;28;21289;-54
2023/03/20 05:52:12;;;;;;;15.63;13.68;;;7.70;99.90;;;;;;4982426;28;20051;-52
2023/03/20 05:54:38;;;;;;;17.25;13.82;;;7.70;99.90;;;;;;4984013;28;20391;-51
2023/03/20 05:57:03;;;;;;;17.65;13.43;;;7.70;99.90;;;;;;4983584;28;20043;-51
2023/03/20 05:59:29;;;;;;;17.17;13.05;;;7.70;99.90;;;;;;4982735;28;20038;-51
2023/03/20 06:01:54;;;;;;;15.27;11.82;;;7.70;99.90;;;;;;4983149;28;20558;-50
2023/03/20 06:04:20;;;;;;;15.02;12.10;;;7.70;99.90;;;;;;4983172;28;20050;-53
2023/03/20 06:06:46;;;;;;;14.68;11.65;;;7.70;99.90;;;;;;4983701;28;20470;-53
2023/03/20 06:09:11;;;;;;;15.70;11.07;;;7.80;99.90;;;;;;4983581;28;20042;-53
2023/03/20 06:11:37;;;;;;;17.08;10.77;;;7.80;99.90;;;;;;4984630;28;20506;-51
2023/03/20 06:14:03;;;;;;;12.10;9.75;;;7.80;99.90;;;;;;4982891;28;20046;-50
2023/03/20 06:16:28;;;;;;;15.85;9.55;;;7.80;99.90;;;;;;4982730;28;20240;-50
2023/03/20 06:18:54;;;;;;;11.15;9.30;;;7.80;99.90;;;;;;4983163;28;20057;-51
2023/03/20 06:21:20;;;;;;;14.10;9.23;;;7.80;99.90;;;;;;4982613;28;20057;-51
2023/03/20 06:23:45;;;;;;;14.32;9.25;;;7.90;99.90;;;;;;4979890;28;20053;-54
2023/03/20 06:26:11;;;;;;;12.13;9.38;;;7.90;99.90;;;;;;4979459;28;20042;-52
2023/03/20 06:28:36;;;;;;;14.30;8.95;;;7.90;99.90;;;;;;4980744;28;20370;-50
2023/03/20 06:31:02;;;;;;;13.63;8.88;;;7.90;99.90;;;;;;4990024;28;20046;-51
2023/03/20 06:33:28;;;;;;;12.70;8.73;;;7.90;99.90;;;;;;4986360;28;20120;-51
2023/03/20 06:35:53;;;;;;;12.40;8.85;;;8.00;99.90;;;;;;4990649;28;20050;-50
2023/03/20 06:38:19;;;;;;;12.32;8.85;;;8.00;99.90;;;;;;4991727;28;20041;-52
2023/03/20 06:40:45;;;;;;;13.57;8.88;;;8.10;99.90;;;;;;4993933;28;20038;-51
2023/03/20 06:43:11;;;;;;;11.20;8.40;;;8.10;99.90;;;;;;4987510;28;20391;-50
2023/03/20 06:45:38;;;;;;;16.60;8.80;;;8.10;99.90;;;;;;4981989;28;20408;-50
2023/03/20 06:48:08;;;;;;;14.07;8.73;;;8.20;99.90;;;;;;4984073;28;20088;-52
2023/03/20 06:50:33;;;;;;;13.35;8.30;;;8.30;99.90;;;;;;5004617;28;20042;-52
2023/03/20 06:52:59;;;;;;;13.73;8.57;;;8.30;99.90;;;;;;4993470;28;20044;-54
2023/03/20 06:55:24;;;;;;;10.85;7.85;;;8.40;99.90;;;;;;4990822;28;20074;-52
2023/03/20 06:57:50;;;;;;;14.20;8.75;;;8.30;99.90;;;;;;4974017;28;20047;-51
2023/03/20 07:00:16;;;;;;;11.85;8.07;;;8.50;99.90;;;;;;4977893;28;20038;-50
2023/03/20 07:02:42;;;;;;;14.27;8.90;;;8.60;99.90;;;;;;4992814;28;20391;-52
2023/03/20 07:05:09;;;;;;;13.23;8.10;;;8.60;99.90;;;;;;4995348;28;20042;-50
2023/03/20 07:07:35;;;;;;;12.15;7.68;;;8.60;99.90;;;;;;5003135;28;20034;-52
2023/03/20 07:10:01;;;;;;;12.10;8.00;;;8.50;99.90;;;;;;4987190;28;20132;-52
2023/03/20 07:12:27;;;;;;;13.93;7.38;;;8.50;99.90;;;;;;4985563;28;20142;-50
2023/03/20 07:14:54;;;;;;;13.45;8.13;;;8.60;99.90;;;;;;4977009;28;20125;-55
2023/03/20 07:17:21;;;;;;;12.52;8.00;;;8.60;99.90;;;;;;4989760;28;20054;-50
2023/03/20 07:19:46;;;;;;;15.35;8.52;;;8.60;99.90;;;;;;4983879;28;20050;-52
2023/03/20 07:22:22;;;;;;;13.55;8.27;;;8.60;99.90;;;;;;4982510;28;20034;-54
2023/03/20 07:24:48;;;;;;;15.18;8.70;;;8.70;99.90;;;;;;4982144;28;21836;-55
2023/03/20 07:27:13;;;;;;;13.68;8.02;;;8.70;99.90;;;;;;4964591;28;20073;-53
2023/03/20 07:29:39;;;;;;;13.70;8.20;;;8.80;99.90;;;;;;4981933;28;20049;-52
2023/03/20 07:32:05;;;;;;;13.05;7.90;;;8.80;99.90;;;;;;4980710;28;20038;-53
2023/03/20 07:34:31;;;;;;;15.27;8.35;;;8.80;99.90;;;;;;4988914;28;20508;-53
2023/03/20 07:36:56;;;;;;;10.75;8.13;;;8.90;99.90;;;;;;4989862;28;20065;-54
2023/03/20 07:39:22;;;;;;;17.45;9.05;;;8.90;99.90;;;;;;4989601;28;20392;-51
2023/03/20 07:41:48;;;;;;;13.43;8.73;;;8.90;99.90;;;;;;4987024;28;20050;-50
2023/03/20 07:44:13;;;;;;;14.23;9.30;;;8.80;99.90;;;;;;4987503;28;20053;-53
2023/03/20 07:46:39;;;;;;;13.02;8.75;;;8.90;99.90;;;;;;4990653;28;20124;-50
2023/03/20 07:49:06;;;;;;;15.77;9.23;;;8.90;99.90;;;;;;4995563;28;20042;-53
2023/03/20 07:51:32;;;;;;;18.20;9.65;;;8.90;99.90;;;;;;4981882;28;20042;-51
2023/03/20 07:53:58;;;;;;;13.98;9.43;;;8.90;99.90;;;;;;4975070;28;20518;-50
2023/03/20 07:56:23;;;;;;;13.80;8.93;;;8.90;99.90;;;;;;4995636;28;20041;-50
2023/03/20 07:58:49;;;;;;;13.20;9.07;;;9.00;99.90;;;;;;4994011;28;20566;-53
2023/03/20 08:01:15;;;;;;;13.95;9.85;;;9.10;99.90;;;;;;4986832;28;20035;-54
2023/03/20 08:03:40;;;;;;;15.57;9.63;;;9.20;99.90;;;;;;4989381;28;20034;-50
2023/03/20 08:06:08;;;;;;;17.88;10.40;;;9.20;99.90;;;;;;4986269;28;20407;-53
2023/03/20 08:08:34;;;;;;;17.65;10.15;;;9.30;99.90;;;;;;4986150;28;20529;-50
2023/03/20 08:11:00;;;;;;;17.05;10.38;;;9.40;99.90;;;;;;4990243;28;20058;-52
2023/03/20 08:13:26;;;;;;;16.88;9.98;;;9.40;99.90;;;;;;4993416;28;20129;-52
2023/03/20 08:15:52;;;;;;;16.35;10.57;;;9.40;99.90;;;;;;4991244;28;20057;-52
2023/03/20 08:18:21;;;;;;;17.33;10.05;;;9.50;99.90;;;;;;4995190;28;20035;-54
2023/03/20 08:20:48;;;;;;;14.57;10.80;;;9.50;99.90;;;;;;4994113;28;20046;-51
2023/03/20 08:23:15;;;;;;;15.23;9.98;;;9.60;99.90;;;;;;4987170;28;20053;-50
2023/03/20 08:25:40;;;;;;;14.27;9.77;;;9.60;99.90;;;;;;4989965;28;20054;-51
2023/03/20 08:28:07;;;;;;;17.38;11.23;;;9.70;99.90;;;;;;4985266;28;20380;-50
2023/03/20 08:30:32;;;;;;;13.90;9.90;;;9.70;99.90;;;;;;4993090;28;20038;-50
2023/03/20 08:32:58;;;;;;;14.35;10.75;;;9.80;99.90;;;;;;4987055;28;20053;-52
2023/03/20 08:35:24;;;;;;;16.85;9.88;;;9.90;99.90;;;;;;4986263;28;20402;-53
2023/03/20 08:37:49;;;;;;;15.50;10.40;;;9.90;99.90;;;;;;4978310;28;20570;-51
2023/03/20 08:40:15;;;;;;;16.08;10.75;;;10.00;99.90;;;;;;4996080;28;20117;-49
2023/03/20 08:42:41;;;;;;;15.13;10.52;;;10.20;99.90;;;;;;4994948;28;20038;-50
2023/03/20 08:45:07;;;;;;;14.82;9.95;;;10.20;99.90;;;;;;4995860;28;20133;-50
2023/03/20 08:47:33;;;;;;;14.00;9.90;;;10.40;99.90;;;;;;4996289;28;20069;-50
2023/03/20 08:49:59;;;;;;;16.60;10.25;;;;;;;;;;4995949;28;20046;-49
2023/03/20 08:52:28;;;;;;;14.98;10.38;;;10.70;99.90;;;;;;4995745;28;20050;-49
2023/03/20 08:54:56;;;;;;;13.50;10.02;;;10.70;99.90;;;;;;4995422;28;20171;-49
2023/03/20 08:57:22;;;;;;;15.52;10.45;;;10.80;99.90;;;;;;4986796;28;20077;-49
2023/03/20 08:59:48;;;;;;;17.48;10.45;;;10.80;99.90;;;;;;4994808;28;20092;-49
2023/03/20 09:02:14;;;;;;;15.35;10.57;;;;;;;;;;4994715;28;20559;-50
2023/03/20 09:04:40;;;;;;;13.45;10.20;;;11.00;99.90;;;;;;4996179;28;20053;-49
2023/03/20 09:07:06;;;;;;;15.20;9.85;;;11.20;99.90;;;;;;4995563;28;20125;-50
2023/03/20 09:09:32;;;;;;;14.00;9.95;;;11.20;99.90;;;;;;4995370;28;20117;-50
2023/03/20 09:11:58;;;;;;;14.60;10.02;;;11.20;99.90;;;;;;4995338;28;20526;-50
2023/03/20 09:14:25;;;;;;;16.63;9.57;;;11.30;99.90;;;;;;4994434;28;20526;-49
2023/03/20 09:16:51;;;;;;;15.07;8.75;;;11.40;99.90;;;;;;4995146;28;20053;-49
2023/03/20 09:19:17;;;;;;;13.98;8.98;;;;;;;;;;4995327;28;20042;-49
2023/03/20 09:21:43;;;;;;;14.15;9.18;;;11.60;99.90;;;;;;4994931;28;20335;-50
2023/03/20 09:24:10;;;;;;;14.60;9.40;;;11.80;99.90;;;;;;4995140;28;20085;-50
2023/03/20 09:26:36;;;;;;;11.67;8.63;;;11.80;99.90;;;;;;4994529;28;20184;-50
2023/03/20 09:29:03;;;;;;;12.65;8.43;;;11.80;99.90;;;;;;4994162;28;20301;-50
2023/03/20 09:31:28;;;;;;;13.40;7.70;;;11.90;99.90;;;;;;4995410;28;20125;-51
2023/03/20 09:33:57;;;;;;;14.38;8.85;;;12.00;99.90;;;;;;4993796;28;20522;-53
2023/03/20 09:36:22;;;;;;;13.88;8.70;;;12.20;99.90;;;;;;4995024;28;20517;-50
2023/03/20 09:38:48;;;;;;;12.50;8.63;;;12.20;99.90;;;;;;5002792;28;20046;-49
2023/03/20 09:41:22;;;;;;;12.32;8.95;;;12.20;99.90;;;;;;5007875;28;20042;-50
2023/03/20 09:43:55;;;;;;;12.93;7.93;;;12.20;99.90;;;;;;4975769;28;20130;-51
2023/03/20 09:46:48;;;;;;;10.93;7.97;;;12.10;99.90;;;;;;4975671;28;20045;-50
2023/03/20 09:49:24;;;;;;;10.93;7.72;;;12.10;99.90;;;;;;4975394;28;20057;-50
2023/03/20 09:52:06;;;;;;;12.60;7.80;;;12.10;99.90;;;;;;4984671;28;20046;-51
2023/03/20 09:54:44;;;;;;;14.93;8.25;;;12.20;99.90;;;;;;4994824;28;20050;-50
2023/03/20 09:57:44;;;;;;;10.40;7.35;;;12.30;99.90;;;;;;5001875;28;20050;-49
2023/03/20 10:00:18;;;;;;;11.55;6.95;;;12.40;99.90;;;;;;4994907;28;20050;-50
2023/03/20 10:02:58;;;;;;;11.77;7.65;;;12.30;99.90;;;;;;4994572;28;20069;-49
2023/03/20 10:05:33;;;;;;;15.80;7.30;;;12.50;99.90;;;;;;4994935;28;20121;-49
2023/03/20 10:08:01;;;;;;;15.48;7.25;;;12.70;99.90;;;;;;4994301;28;20064;-51
2023/03/20 10:10:50;;;;;;;15.13;6.65;;;12.80;99.90;;;;;;4994536;28;20082;-50
2023/03/20 10:13:43;;;;;;;13.70;6.65;;;12.80;99.90;;;;;;4986684;28;20042;-50
2023/03/20 10:16:40;;;;;;;10.77;7.10;;;13.00;99.90;;;;;;4994240;28;20384;-51
2023/03/20 10:19:06;;;;;;;9.43;5.97;;;13.10;99.90;;;;;;4991368;28;20113;-50
2023/03/20 10:21:44;;;;;;;11.05;6.70;;;13.10;99.90;;;;;;4994238;28;20142;-51
2023/03/20 10:24:18;;;;;;;9.70;6.55;;;13.20;99.90;;;;;;4983280;28;20034;-50
2023/03/20 10:26:47;;;;;;;11.30;6.22;;;13.30;99.90;;;;;;4975849;28;20047;-54
2023/03/20 10:29:24;;;;;;;12.07;6.40;;;13.40;99.90;;;;;;4977571;28;20047;-54
2023/03/20 10:32:23;;;;;;;13.00;6.00;;;13.50;99.90;;;;;;4985916;28;20046;-52
2023/03/20 10:34:55;;;;;;;9.23;6.38;;;13.50;99.90;;;;;;4986663;28;20515;-54
2023/03/20 10:37:42;;;;;;;14.20;7.20;;;13.30;99.90;;;;;;4988844;28;20042;-51
2023/03/20 10:40:25;;;;;;;15.30;6.05;;;13.10;99.90;;;;;;5006411;28;20543;-54
2023/03/20 10:42:53;;;;;;;14.73;6.57;;;12.80;99.90;;;;;;4984731;28;20046;-51
2023/03/20 10:45:26;;;;;;;;;;;12.70;99.90;;;;;;4993785;28;20050;-49
2023/03/20 10:47:54;;;;;;;11.93;7.07;;;12.60;99.90;;;;;;4991313;28;19952;-50
2023/03/20 10:50:30;;;;;;;14.18;7.28;;;12.50;99.90;;;;;;4988572;28;20495;-53
2023/03/20 10:52:58;;;;;;;9.60;6.55;;;12.40;99.90;;;;;;4991354;28;20053;-50
2023/03/20 10:55:29;;;;;;;13.45;7.68;;;12.40;99.90;;;;;;4992578;28;20144;-50
2023/03/20 10:58:24;;;;;;;12.27;7.18;;;12.40;99.90;;;;;;4975025;28;20054;-51
2023/03/20 11:00:50;;;;;;;14.35;7.18;;;12.40;99.90;;;;;;4989884;28;20046;-49
2023/03/20 11:03:29;;;;;;;11.57;6.38;;;12.30;99.90;;;;;;4992717;28;20475;-49
2023/03/20 11:06:21;;;;;;;16.05;6.45;;;12.10;99.90;;;;;;4990625;28;20085;-49
2023/03/20 11:08:52;;;;;;;12.60;6.75;;;12.00;99.90;;;;;;4990855;28;20046;-49
2023/03/20 11:11:26;;;;;;;10.70;6.60;;;11.80;99.90;;;;;;4991251;28;20042;-50
2023/03/20 11:13:53;;;;;;;14.35;6.90;;;11.80;99.90;;;;;;4982635;28;20062;-52
2023/03/20 11:16:24;;;;;;;13.25;6.70;;;11.70;99.90;;;;;;4991942;28;20042;-50
2023/03/20 11:18:52;;;;;;;13.50;6.70;;;11.60;99.90;;;;;;4991519;28;20078;-50
2023/03/20 11:21:26;;;;;;;12.35;6.57;;;11.50;99.90;;;;;;4992697;28;20046;-53
2023/03/20 11:23:52;;;;;;;9.93;5.88;;;11.50;99.90;;;;;;4990229;28;20460;-51
2023/03/20 11:26:40;;;;;;;9.10;6.47;;;11.50;99.90;;;;;;4986187;28;20121;-51
2023/03/20 11:29:16;;;;;;;9.93;6.80;;;11.50;99.90;;;;;;4983924;28;20126;-51
2023/03/20 11:31:42;;;;;;;12.82;7.00;;;11.60;99.90;;;;;;4980415;28;20444;-54
2023/03/20 11:34:13;;;;;;;14.50;7.03;;;11.50;99.90;;;;;;4979320;28;20058;-51
2023/03/20 11:36:54;;;;;;;18.80;6.65;;;11.50;99.90;;;;;;4991781;28;20046;-52
2023/03/20 11:39:51;;;;;;;14.40;7.00;;;11.50;99.90;;;;;;4983471;28;20042;-50
2023/03/20 11:42:23;;;;;;;11.50;6.63;;;11.50;99.90;;;;;;4986976;28;20046;-50
2023/03/20 11:45:00;;;;;;;11.10;6.63;;;11.40;99.90;;;;;;4991194;28;20050;-50
2023/03/20 11:47:28;;;;;;;11.75;6.22;;;11.40;99.90;;;;;;4992265;28;20042;-50
2023/03/20 11:49:56;;;;;;;23.83;6.68;;;11.40;99.90;;;;;;4984871;28;20094;-50
2023/03/20 11:52:35;;;;;;;11.05;6.25;;;11.40;99.90;;;;;;4987298;28;20049;-53
2023/03/20 11:55:06;;;;;;;10.10;6.28;;;11.50;99.90;;;;;;4990105;28;20542;-49
2023/03/20 11:57:40;;;;;;;12.43;5.95;;;11.60;99.90;;;;;;4981854;28;20044;-50
2023/03/20 12:00:24;;;;;;;13.55;6.22;;;11.60;99.90;;;;;;5002138;28;20042;-53
2023/03/20 12:02:50;;;;;;;11.40;5.90;;;11.50;99.90;;;;;;4990468;28;20055;-49
2023/03/20 12:05:36;;;;;;;9.13;5.40;;;11.50;99.90;;;;;;4993534;28;20050;-51
2023/03/20 12:08:16;;;;;;;12.70;5.57;;;11.40;99.90;;;;;;4995597;28;20042;-50
2023/03/20 12:10:48;;;;;;;10.00;5.63;;;11.50;99.90;;;;;;4997769;28;20081;-50
2023/03/20 12:13:19;;;;;;;6.72;4.65;;;11.50;99.90;;;;;;4996581;28;20426;-51
2023/03/20 12:15:49;;;;;;;13.75;5.30;;;11.50;99.90;;;;;;4990942;28;20145;-50
2023/03/20 12:18:41;;;;;;;6.03;4.22;;;11.60;99.90;;;;;;4995087;28;20034;-52
2023/03/20 12:21:32;;;;;;;8.98;4.53;;;11.60;99.90;;;;;;4993523;28;20519;-53
2023/03/20 12:24:16;;;;;;;8.15;4.03;;;11.80;99.90;;;;;;4981944;28;20132;-52
2023/03/20 12:26:55;;;;;;;8.57;3.47;;;12.00;99.90;;;;;;4993849;28;20057;-51
2023/03/20 12:29:35;;;;;;;7.70;4.05;;;;;;;;;;4991720;28;20057;-52
2023/03/20 12:32:28;;;;;;;10.45;3.22;;;12.10;99.90;;;;;;4990220;28;20074;-53
2023/03/20 12:35:04;;;;;;;8.82;3.42;;;12.20;99.90;;;;;;4972612;28;20145;-51
2023/03/20 12:37:31;;;;;;;5.70;2.90;;;12.30;99.90;;;;;;4994275;28;20034;-51
2023/03/20 12:39:59;;;;;;;5.65;3.00;;;12.30;99.90;;;;;;4991555;28;20050;-51
2023/03/20 12:42:25;;;;;;;4.50;2.95;;;12.20;99.90;;;;;;4993542;28;20042;-53
2023/03/20 12:45:03;;;;;;;6.03;3.20;;;12.10;99.90;;;;;;4989560;28;20059;-50
2023/03/20 12:47:40;;;;;;;4.63;2.92;;;12.10;99.90;;;;;;4988944;28;20141;-50
2023/03/20 12:50:25;;;;;;;11.45;3.33;;;12.00;99.90;;;;;;4990769;28;20049;-49
2023/03/20 12:53:22;;;;;;;6.57;2.88;;;12.00;99.90;;;;;;4993217;28;20164;-50
2023/03/20 12:56:05;;;;;;;5.70;2.90;;;11.90;99.90;;;;;;4995904;28;20050;-51
2023/03/20 12:59:05;;;;;;;7.53;3.28;;;11.90;99.90;;;;;;4996202;28;20047;-50
2023/03/20 13:01:51;;;;;;;6.40;3.22;;;11.90;99.90;;;;;;4915912;29;20048;-52